Time;durP1;ratioP1;P1;durP2;ratioP2;P2;SDS_P1;SDS_P2;PMS_P1;PMS_P2;Temp;Humidity;BMP_temperature;BMP_pressure;BME280_temperature;BME280_humidity;BME280_pressure;Samples;Min_cycle;Max_cycle;Signal;HPM_P1;HPM_P2
2023/09/01 00:00:49;;;;;;;;;;;;;;;16.11;83.63;99683.31;1084110;54;19946;-79
2023/09/01 00:01:50;;;;;;;;;;;;;;;16.00;85.52;99677.38;1083823;47;19970;-78
2023/09/01 00:02:56;;;;;;;;;;;;;;;15.93;85.42;99681.88;1084018;47;19998;-78
2023/09/01 00:03:57;;;;;;;;;;;;;;;15.80;85.05;99681.66;1084200;54;19994;-79
2023/09/01 00:05:00;;;;;;;;;;;;;;;15.76;85.17;99686.59;1083464;47;19958;-79
2023/09/01 00:06:02;;;;;;;;;;;;;;;15.81;84.28;99688.72;1083863;54;19951;-79
2023/09/01 00:07:06;;;;;;;;;;;;;;;15.85;83.86;99685.50;1083710;47;19961;-80
2023/09/01 00:08:07;;;;;;;;;;;;;;;15.93;83.56;99686.41;1083662;47;19947;-80
2023/09/01 00:09:10;;;;;;;;;;;;;;;15.92;85.03;99684.75;1082905;54;19954;-79
2023/09/01 00:10:11;;;;;;;;;;;;;;;15.84;85.07;99688.38;1082866;47;19951;-80
2023/09/01 00:11:14;;;;;;;;;;;;;;;15.87;85.00;99685.31;1083269;47;19950;-79
2023/09/01 00:12:15;;;;;;;;;;;;;;;15.87;85.30;99679.94;1083278;47;19946;-79
2023/09/01 00:13:15;;;;;;;;;;;;;;;15.90;84.26;99684.94;1084193;47;19982;-80
2023/09/01 00:14:19;;;;;;;;;;;;;;;15.90;84.11;99682.22;1084514;47;19950;-79
2023/09/01 00:15:19;;;;;;;;;;;;;;;15.92;83.95;99668.59;1084440;54;20461;-79
2023/09/01 00:16:23;;;;;;;;;;;;;;;15.92;84.63;99661.31;1083641;54;19954;-80
2023/09/01 00:17:23;;;;;;;;;;;;;;;15.93;84.79;99671.09;1083972;51;19950;-79
2023/09/01 00:18:30;;;;;;;;;;;;;;;15.94;84.44;99664.66;1083806;46;19998;-79
2023/09/01 00:19:30;;;;;;;;;;;;;;;15.95;84.61;99663.66;1084271;50;19954;-79
2023/09/01 00:20:35;;;;;;;;;;;;;;;15.96;84.10;99670.72;1083578;47;19947;-79
2023/09/01 00:21:36;;;;;;;;;;;;;;;15.96;84.07;99661.78;1083880;47;19950;-78
2023/09/01 00:22:36;;;;;;;;;;;;;;;15.94;84.38;99670.06;1083475;47;19946;-80
2023/09/01 00:23:40;;;;;;;;;;;;;;;15.89;83.87;99659.00;1083794;47;19974;-79
2023/09/01 00:24:40;;;;;;;;;;;;;;;15.87;84.53;99658.38;1084606;54;19950;-79
2023/09/01 00:25:44;;;;;;;;;;;;;;;15.86;84.11;99660.22;1083725;47;19966;-79
2023/09/01 00:26:44;;;;;;;;;;;;;;;15.88;84.27;99654.63;1084207;47;19951;-79
2023/09/01 00:27:48;;;;;;;;;;;;;;;15.86;84.61;99643.22;1084293;47;19947;-79
2023/09/01 00:28:48;;;;;;;;;;;;;;;15.85;84.65;99655.03;1084469;47;19971;-79
2023/09/01 00:29:51;;;;;;;;;;;;;;;15.82;84.38;99647.28;1084562;54;19951;-79
2023/09/01 00:30:53;;;;;;;;;;;;;;;15.81;84.58;99641.06;1084233;47;19970;-78
2023/09/01 00:31:56;;;;;;;;;;;;;;;15.80;85.04;99643.94;1083693;47;19947;-79
2023/09/01 00:32:57;;;;;;;;;;;;;;;15.77;85.56;99638.94;1084174;54;19947;-79
2023/09/01 00:34:03;;;;;;;;;;;;;;;15.78;84.89;99641.44;1084499;54;19947;-79
2023/09/01 00:35:04;;;;;;;;;;;;;;;15.80;85.23;99638.53;1084269;47;19951;-80
2023/09/01 00:36:08;;;;;;;;;;;;;;;15.75;85.42;99641.78;1083034;46;19971;-78
2023/09/01 00:37:08;;;;;;;;;;;;;;;15.77;85.37;99639.75;1082598;47;19946;-78
2023/09/01 00:38:11;;;;;;;;;;;;;;;15.72;86.50;99648.41;1083000;54;19950;-79
2023/09/01 00:39:12;;;;;;;;;;;;;;;15.71;86.64;99657.50;1084137;39;20707;-79
2023/09/01 00:40:13;;;;;;;;;;;;;;;15.70;88.21;99655.00;1082731;46;19962;-79
2023/09/01 00:41:16;;;;;;;;;;;;;;;15.60;87.94;99656.13;1082799;47;19947;-78
2023/09/01 00:42:16;;;;;;;;;;;;;;;15.63;88.03;99665.69;1083465;54;19946;-78
2023/09/01 00:43:20;;;;;;;;;;;;;;;15.65;88.50;99663.66;1083257;54;19951;-78
2023/09/01 00:44:21;;;;;;;;;;;;;;;15.69;87.37;99670.31;1082947;47;19970;-79
2023/09/01 00:45:24;;;;;;;;;;;;;;;15.74;88.26;99670.63;1082813;47;19994;-79
2023/09/01 00:46:25;;;;;;;;;;;;;;;15.76;87.04;99667.72;1083464;47;19947;-79
2023/09/01 00:47:28;;;;;;;;;;;;;;;15.69;87.47;99662.25;1084158;46;20006;-79
2023/09/01 00:48:29;;;;;;;;;;;;;;;15.72;87.42;99656.50;1084672;47;19977;-79
2023/09/01 00:49:35;;;;;;;;;;;;;;;15.74;87.19;99661.69;1084713;47;20532;-79
2023/09/01 00:50:36;;;;;;;;;;;;;;;15.76;86.97;99648.84;1084814;47;19946;-79
2023/09/01 00:51:39;;;;;;;;;;;;;;;15.70;88.84;99649.63;1084717;54;19958;-79
2023/09/01 00:52:40;;;;;;;;;;;;;;;15.69;88.03;99653.34;1084840;47;19946;-79
2023/09/01 00:53:43;;;;;;;;;;;;;;;15.71;87.23;99660.19;1084980;47;19957;-79
2023/09/01 00:54:44;;;;;;;;;;;;;;;15.73;87.45;99657.31;1085340;39;20444;-79
2023/09/01 00:55:47;;;;;;;;;;;;;;;15.73;87.28;99658.16;1084592;47;19953;-79
2023/09/01 00:56:49;;;;;;;;;;;;;;;15.65;87.12;99652.88;1084752;47;19950;-79
2023/09/01 00:57:52;;;;;;;;;;;;;;;15.65;87.66;99652.88;1084915;47;19950;-80
2023/09/01 00:58:53;;;;;;;;;;;;;;;15.68;88.34;99651.66;1085038;54;19971;-79
2023/09/01 00:59:56;;;;;;;;;;;;;;;15.70;87.99;99652.31;1084427;47;19951;-79
2023/09/01 01:00:58;;;;;;;;;;;;;;;15.74;88.41;99653.59;1084614;47;19946;-79
2023/09/01 01:02:01;;;;;;;;;;;;;;;15.77;87.38;99647.00;1084690;54;19971;-80
2023/09/01 01:03:04;;;;;;;;;;;;;;;15.81;88.48;99651.00;1085326;39;20373;-79
2023/09/01 01:04:07;;;;;;;;;;;;;;;15.77;88.59;99655.09;1084187;47;19955;-79
2023/09/01 01:05:15;;;;;;;;;;;;;;;15.81;87.55;99648.28;1085011;54;20449;-79
2023/09/01 01:06:22;;;;;;;;;;;;;;;15.85;87.12;99652.31;1084853;54;20047;-79
2023/09/01 01:07:26;;;;;;;;;;;;;;;15.87;87.85;99648.41;1084097;47;19971;-79
2023/09/01 01:08:33;;;;;;;;;;;;;;;15.71;88.36;99635.94;1084241;47;19957;-80
2023/09/01 01:09:38;;;;;;;;;;;;;;;15.65;87.99;99636.72;1083956;47;19950;-79
2023/09/01 01:10:57;;;;;;;;;;;;;;;15.72;87.33;99632.25;1084340;54;19951;-80
2023/09/01 01:12:05;;;;;;;;;;;;;;;15.79;86.98;99643.09;1084139;47;19977;-80
2023/09/01 01:13:11;;;;;;;;;;;;;;;15.74;87.08;99635.59;1083942;47;19950;-79
2023/09/01 01:14:15;;;;;;;;;;;;;;;15.75;87.33;99628.31;1084619;39;20595;-78
2023/09/01 01:15:19;;;;;;;;;;;;;;;15.79;86.99;99637.72;1083772;47;19954;-79
2023/09/01 01:16:21;;;;;;;;;;;;;;;15.86;86.74;99635.13;1083657;54;19947;-79
2023/09/01 01:17:24;;;;;;;;;;;;;;;15.86;86.67;99627.88;1083582;39;20357;-79
2023/09/01 01:18:26;;;;;;;;;;;;;;;15.80;87.40;99627.75;1083627;39;20377;-79
2023/09/01 01:19:38;;;;;;;;;;;;;;;15.81;88.62;99629.44;1083350;54;19947;-78
2023/09/01 01:20:46;;;;;;;;;;;;;;;15.75;88.78;99625.63;1082955;47;19946;-79
2023/09/01 01:21:48;;;;;;;;;;;;;;;15.68;90.33;99622.84;1082864;47;19955;-79
2023/09/01 01:22:53;;;;;;;;;;;;;;;15.64;89.51;99623.41;1082888;47;19947;-78
2023/09/01 01:23:57;;;;;;;;;;;;;;;15.65;88.62;99625.94;1083884;39;20453;-78
2023/09/01 01:25:00;;;;;;;;;;;;;;;15.68;88.00;99622.84;1083080;47;19950;-79
2023/09/01 01:26:01;;;;;;;;;;;;;;;15.73;87.79;99624.97;1083356;54;19974;-78
2023/09/01 01:27:02;;;;;;;;;;;;;;;15.77;88.09;99625.47;1083016;47;19991;-79
2023/09/01 01:28:09;;;;;;;;;;;;;;;15.75;89.50;99612.16;1083063;47;19946;-78
2023/09/01 01:29:09;;;;;;;;;;;;;;;15.74;89.64;99618.56;1082846;47;19954;-78
2023/09/01 01:30:13;;;;;;;;;;;;;;;15.78;88.49;99624.41;1083738;47;19953;-78
2023/09/01 01:31:14;;;;;;;;;;;;;;;15.77;87.88;99620.06;1082911;47;19975;-78
2023/09/01 01:32:17;;;;;;;;;;;;;;;15.79;87.99;99616.16;1083403;54;19997;-79
2023/09/01 01:33:25;;;;;;;;;;;;;;;15.80;89.49;99609.75;1083807;47;19946;-78
2023/09/01 01:34:32;;;;;;;;;;;;;;;15.78;90.10;99614.47;1083655;47;19946;-79
2023/09/01 01:35:36;;;;;;;;;;;;;;;15.77;90.65;99611.97;1084648;47;19947;-78
2023/09/01 01:36:43;;;;;;;;;;;;;;;15.82;89.24;99614.94;1085634;54;19950;-79
2023/09/01 01:37:46;;;;;;;;;;;;;;;15.83;88.93;99614.72;1085039;47;19971;-78
2023/09/01 01:38:51;;;;;;;;;;;;;;;15.78;90.77;99602.84;1084404;54;20053;-78
2023/09/01 01:39:55;;;;;;;;;;;;;;;15.68;90.30;99606.69;1083281;39;20380;-79
2023/09/01 01:41:02;;;;;;;;;;;;;;;15.69;90.33;99612.91;1082790;47;19970;-78
2023/09/01 01:42:08;;;;;;;;;;;;;;;15.75;89.10;99610.31;1083066;47;20007;-78
2023/09/01 01:43:12;;;;;;;;;;;;;;;15.80;88.57;99600.81;1083657;39;20468;-79
2023/09/01 01:44:14;;;;;;;;;;;;;;;15.84;87.91;99608.34;1083655;47;19950;-78
2023/09/01 01:45:20;;;;;;;;;;;;;;;15.89;87.52;99615.88;1082911;47;19950;-78
2023/09/01 01:46:21;;;;;;;;;;;;;;;15.93;87.48;99611.78;1083222;54;19950;-79
2023/09/01 01:47:24;;;;;;;;;;;;;;;15.95;86.91;99614.28;1083978;47;19947;-78
2023/09/01 01:48:25;;;;;;;;;;;;;;;15.95;86.78;99615.13;1083059;47;19971;-79
2023/09/01 01:49:29;;;;;;;;;;;;;;;15.94;87.02;99613.44;1083044;54;20006;-79
2023/09/01 01:50:32;;;;;;;;;;;;;;;16.00;87.18;99615.38;1084009;54;19947;-79
2023/09/01 01:51:35;;;;;;;;;;;;;;;15.99;87.37;99619.09;1084173;47;20080;-79
2023/09/01 01:52:36;;;;;;;;;;;;;;;15.96;88.42;99626.72;1084142;47;19978;-79
2023/09/01 01:53:40;;;;;;;;;;;;;;;15.91;88.99;99624.59;1084199;47;20041;-79
2023/09/01 01:54:41;;;;;;;;;;;;;;;15.93;87.85;99622.56;1084190;47;19950;-79
2023/09/01 01:55:46;;;;;;;;;;;;;;;15.88;88.44;99616.88;1084493;54;19947;-79
2023/09/01 01:56:47;;;;;;;;;;;;;;;15.92;88.34;99628.97;1084121;47;20095;-79
2023/09/01 01:57:50;;;;;;;;;;;;;;;15.85;88.57;99617.28;1084291;47;20068;-79
2023/09/01 01:58:51;;;;;;;;;;;;;;;15.84;89.72;99621.81;1084994;54;19971;-79
2023/09/01 01:59:54;;;;;;;;;;;;;;;15.88;88.80;99623.13;1084830;47;19946;-79
2023/09/01 02:00:55;;;;;;;;;;;;;;;15.88;88.06;99617.75;1084509;47;19975;-79
2023/09/01 02:01:58;;;;;;;;;;;;;;;15.91;89.16;99608.44;1084687;54;19951;-79
2023/09/01 02:02:59;;;;;;;;;;;;;;;15.94;88.33;99613.44;1084630;47;19961;-79
2023/09/01 02:04:05;;;;;;;;;;;;;;;15.96;87.79;99610.56;1084941;47;19977;-79
2023/09/01 02:05:06;;;;;;;;;;;;;;;15.99;87.44;99615.56;1084040;54;20010;-79
2023/09/01 02:06:11;;;;;;;;;;;;;;;16.02;87.19;99616.03;1085536;54;19961;-79
2023/09/01 02:07:12;;;;;;;;;;;;;;;16.05;87.25;99610.25;1085004;47;20755;-79
2023/09/01 02:08:16;;;;;;;;;;;;;;;16.08;86.89;99608.19;1086576;39;20728;-79
2023/09/01 02:09:17;;;;;;;;;;;;;;;16.06;87.17;99613.78;1085530;47;19951;-80
2023/09/01 02:10:20;;;;;;;;;;;;;;;16.03;86.88;99611.47;1084407;47;20530;-79
2023/09/01 02:11:23;;;;;;;;;;;;;;;16.03;86.99;99622.25;1085857;39;20446;-79
2023/09/01 02:12:27;;;;;;;;;;;;;;;16.01;86.91;99619.75;1085001;47;19951;-79
2023/09/01 02:13:28;;;;;;;;;;;;;;;16.05;86.78;99622.88;1084945;47;19947;-79
2023/09/01 02:14:31;;;;;;;;;;;;;;;16.11;87.38;99624.00;1085089;54;19951;-79
2023/09/01 02:15:32;;;;;;;;;;;;;;;16.11;86.70;99621.28;1084919;47;19976;-79
2023/09/01 02:16:35;;;;;;;;;;;;;;;16.12;86.94;99617.56;1085141;47;19971;-80
2023/09/01 02:17:36;;;;;;;;;;;;;;;16.14;86.86;99623.63;1085209;47;19971;-79
2023/09/01 02:18:39;;;;;;;;;;;;;;;16.05;86.83;99623.75;1085188;54;19950;-80
2023/09/01 02:19:40;;;;;;;;;;;;;;;16.09;87.16;99623.34;1085113;47;19971;-80
2023/09/01 02:20:43;;;;;;;;;;;;;;;16.00;86.81;99620.75;1085157;47;19972;-79
2023/09/01 02:21:45;;;;;;;;;;;;;;;15.99;86.69;99623.66;1085776;47;20624;-80
2023/09/01 02:22:50;;;;;;;;;;;;;;;15.98;86.92;99620.13;1085566;47;19992;-80
2023/09/01 02:23:51;;;;;;;;;;;;;;;15.91;87.05;99624.59;1085668;47;19959;-80
2023/09/01 02:24:51;;;;;;;;;;;;;;;15.91;87.14;99624.59;1085146;47;19957;-80
2023/09/01 02:25:55;;;;;;;;;;;;;;;15.95;86.96;99622.34;1085448;46;19951;-80
2023/09/01 02:26:59;;;;;;;;;;;;;;;15.98;87.20;99617.41;1085624;39;20356;-79
2023/09/01 02:28:04;;;;;;;;;;;;;;;16.03;87.10;99624.94;1084857;47;20065;-80
2023/09/01 02:29:05;;;;;;;;;;;;;;;16.04;87.33;99613.97;1085806;39;20353;-80
2023/09/01 02:30:08;;;;;;;;;;;;;;;15.95;87.59;99623.22;1085270;47;19956;-80
2023/09/01 02:31:11;;;;;;;;;;;;;;;15.95;88.06;99623.22;1085193;54;19999;-80
2023/09/01 02:32:12;;;;;;;;;;;;;;;15.97;87.66;99618.44;1085860;39;20499;-80
2023/09/01 02:33:15;;;;;;;;;;;;;;;15.94;87.48;99613.44;1084600;54;19958;-79
2023/09/01 02:34:16;;;;;;;;;;;;;;;15.94;89.35;99616.16;1085130;46;19975;-79
2023/09/01 02:35:20;;;;;;;;;;;;;;;15.92;89.97;99612.81;1085668;47;20000;-80
2023/09/01 02:36:21;;;;;;;;;;;;;;;15.93;89.01;99611.78;1085778;54;19958;-80
2023/09/01 02:37:24;;;;;;;;;;;;;;;15.95;88.54;99614.28;1085837;47;19950;-80
2023/09/01 02:38:25;;;;;;;;;;;;;;;15.93;89.12;99622.56;1086185;54;19946;-79
2023/09/01 02:39:28;;;;;;;;;;;;;;;15.98;88.90;99616.59;1085694;54;20579;-80
2023/09/01 02:40:29;;;;;;;;;;;;;;;15.99;88.40;99616.41;1088087;39;20598;-80
2023/09/01 02:41:32;;;;;;;;;;;;;;;15.99;88.49;99613.69;1085478;47;19950;-80
2023/09/01 02:42:35;;;;;;;;;;;;;;;16.01;87.74;99611.66;1084665;54;19950;-79
2023/09/01 02:43:40;;;;;;;;;;;;;;;16.04;87.78;99619.38;1085916;47;19950;-80
2023/09/01 02:44:40;;;;;;;;;;;;;;;16.06;87.52;99611.09;1085373;47;19950;-80
2023/09/01 02:45:43;;;;;;;;;;;;;;;16.09;87.28;99616.09;1085061;54;19985;-80
2023/09/01 02:46:44;;;;;;;;;;;;;;;16.11;86.86;99618.59;1084619;47;19950;-78
2023/09/01 02:47:47;;;;;;;;;;;;;;;16.14;87.13;99615.53;1084539;46;19947;-79
2023/09/01 02:48:48;;;;;;;;;;;;;;;16.16;86.70;99613.44;1084339;47;19975;-80
2023/09/01 02:49:51;;;;;;;;;;;;;;;16.17;86.64;99612.44;1084634;54;19990;-80
2023/09/01 02:50:52;;;;;;;;;;;;;;;16.16;86.94;99614.31;1084489;54;19971;-79
2023/09/01 02:51:53;;;;;;;;;;;;;;;16.17;86.45;99615.97;1084771;47;19947;-80
2023/09/01 02:52:57;;;;;;;;;;;;;;;16.20;86.34;99614.75;1084940;54;19983;-80
2023/09/01 02:53:58;;;;;;;;;;;;;;;16.20;86.27;99618.25;1085157;54;19947;-79
2023/09/01 02:55:01;;;;;;;;;;;;;;;16.19;86.10;99611.22;1085098;47;19994;-79
2023/09/01 02:56:02;;;;;;;;;;;;;;;16.21;85.88;99616.44;1084744;46;19946;-79
2023/09/01 02:57:06;;;;;;;;;;;;;;;16.22;85.86;99616.22;1085881;39;20443;-79
2023/09/01 02:58:10;;;;;;;;;;;;;;;16.24;86.07;99612.50;1085143;39;20373;-79
2023/09/01 02:59:13;;;;;;;;;;;;;;;16.20;86.25;99604.78;1085152;47;19954;-79
2023/09/01 03:00:15;;;;;;;;;;;;;;;16.20;86.05;99615.56;1084983;47;19970;-78
2023/09/01 03:01:18;;;;;;;;;;;;;;;16.21;85.97;99611.03;1084739;54;19946;-79
2023/09/01 03:02:19;;;;;;;;;;;;;;;16.23;86.05;99611.69;1084685;47;19958;-78
2023/09/01 03:03:20;;;;;;;;;;;;;;;16.25;85.90;99622.25;1083584;46;20854;-79
2023/09/01 03:04:23;;;;;;;;;;;;;;;16.21;86.56;99614.56;1083967;46;19951;-79
2023/09/01 03:05:24;;;;;;;;;;;;;;;16.22;86.11;99620.78;1084295;54;19982;-79
2023/09/01 03:06:27;;;;;;;;;;;;;;;16.22;86.27;99616.22;1085426;47;19946;-80
2023/09/01 03:07:28;;;;;;;;;;;;;;;16.24;86.58;99613.34;1084908;46;19950;-79
2023/09/01 03:08:31;;;;;;;;;;;;;;;16.26;86.24;99611.28;1084104;47;19974;-79
2023/09/01 03:09:32;;;;;;;;;;;;;;;16.25;86.33;99608.78;1084543;54;19946;-79
2023/09/01 03:10:33;;;;;;;;;;;;;;;16.28;86.51;99619.19;1084414;54;19950;-79
2023/09/01 03:11:36;;;;;;;;;;;;;;;16.29;86.41;99613.59;1084391;46;20001;-79
2023/09/01 03:12:37;;;;;;;;;;;;;;;16.26;86.38;99615.84;1083337;54;19950;-79
2023/09/01 03:13:43;;;;;;;;;;;;;;;16.27;86.48;99612.94;1083911;46;20805;-79
2023/09/01 03:14:44;;;;;;;;;;;;;;;16.25;86.51;99606.91;1084235;47;19974;-79
2023/09/01 03:15:47;;;;;;;;;;;;;;;16.22;86.77;99610.81;1083718;47;20403;-78
2023/09/01 03:16:47;;;;;;;;;;;;;;;16.23;86.97;99606.28;1083956;54;19950;-79
2023/09/01 03:17:51;;;;;;;;;;;;;;;16.19;87.10;99607.69;1084475;54;19951;-79
2023/09/01 03:18:57;;;;;;;;;;;;;;;16.16;87.67;99610.75;1085007;54;19971;-79
2023/09/01 03:20:00;;;;;;;;;;;;;;;16.16;87.32;99603.53;1083366;47;19951;-79
2023/09/01 03:21:09;;;;;;;;;;;;;;;16.17;87.55;99604.34;1083505;54;19947;-79
2023/09/01 03:22:13;;;;;;;;;;;;;;;16.17;87.55;99607.03;1083387;47;19958;-78
2023/09/01 03:23:13;;;;;;;;;;;;;;;16.14;88.00;99610.13;1083148;54;19950;-79
2023/09/01 03:24:16;;;;;;;;;;;;;;;16.13;88.19;99616.56;1083246;54;20030;-79
2023/09/01 03:25:17;;;;;;;;;;;;;;;16.19;88.19;99602.28;1083399;54;20821;-79
2023/09/01 03:26:22;;;;;;;;;;;;;;;16.21;87.89;99603.75;1083521;54;19962;-78
2023/09/01 03:27:22;;;;;;;;;;;;;;;16.20;87.75;99601.25;1082949;47;19959;-78
2023/09/01 03:28:25;;;;;;;;;;;;;;;16.17;88.13;99609.72;1083578;47;20022;-78
2023/09/01 03:29:29;;;;;;;;;;;;;;;16.19;88.04;99605.84;1083644;47;19951;-78
2023/09/01 03:30:32;;;;;;;;;;;;;;;16.16;87.95;99603.53;1082654;47;20037;-78
2023/09/01 03:31:33;;;;;;;;;;;;;;;16.20;87.70;99606.66;1082740;54;19946;-79
2023/09/01 03:32:36;;;;;;;;;;;;;;;16.21;87.62;99608.34;1082602;47;19954;-78
2023/09/01 03:33:36;;;;;;;;;;;;;;;16.22;87.33;99610.00;1083012;47;19946;-78
2023/09/01 03:34:40;;;;;;;;;;;;;;;16.19;88.20;99611.22;1083034;39;20389;-78
2023/09/01 03:35:40;;;;;;;;;;;;;;;16.18;88.24;99609.56;1082494;47;20716;-78
2023/09/01 03:36:43;;;;;;;;;;;;;;;16.19;87.96;99608.53;1082977;47;19962;-78
2023/09/01 03:37:44;;;;;;;;;;;;;;;16.20;88.22;99612.06;1083248;47;19974;-78
2023/09/01 03:38:47;;;;;;;;;;;;;;;16.20;88.18;99620.16;1083352;46;19998;-78
2023/09/01 03:39:48;;;;;;;;;;;;;;;16.17;88.05;99612.44;1083029;54;19950;-77
2023/09/01 03:40:51;;;;;;;;;;;;;;;16.20;88.05;99615.56;1082511;47;19951;-78
2023/09/01 03:41:52;;;;;;;;;;;;;;;16.26;88.09;99611.28;1083453;47;19950;-79
2023/09/01 03:42:55;;;;;;;;;;;;;;;16.22;87.76;99612.69;1083784;46;19966;-78
2023/09/01 03:43:56;;;;;;;;;;;;;;;16.17;88.46;99612.44;1083373;47;19970;-78
2023/09/01 03:44:59;;;;;;;;;;;;;;;16.19;88.11;99613.06;1082358;47;19946;-79
2023/09/01 03:46:02;;;;;;;;;;;;;;;16.18;88.68;99608.72;1082924;47;19947;-78
2023/09/01 03:47:04;;;;;;;;;;;;;;;16.18;88.49;99619.50;1082827;47;19954;-79
2023/09/01 03:48:07;;;;;;;;;;;;;;;16.18;88.57;99616.78;1082952;39;20637;-78
2023/09/01 03:49:08;;;;;;;;;;;;;;;16.19;88.13;99613.06;1082555;47;19958;-78
2023/09/01 03:50:11;;;;;;;;;;;;;;;16.26;88.57;99618.53;1082587;46;20886;-79
2023/09/01 03:51:14;;;;;;;;;;;;;;;16.28;88.19;99622.72;1082560;47;19975;-78
2023/09/01 03:52:17;;;;;;;;;;;;;;;16.31;87.58;99616.94;1082944;47;20505;-78
2023/09/01 03:53:18;;;;;;;;;;;;;;;16.34;87.24;99616.53;1082912;39;20391;-78
2023/09/01 03:54:19;;;;;;;;;;;;;;;16.34;87.94;99621.09;1083039;54;19987;-78
2023/09/01 03:55:22;;;;;;;;;;;;;;;16.29;88.18;99619.00;1082486;47;19947;-78
2023/09/01 03:56:23;;;;;;;;;;;;;;;16.32;88.06;99618.63;1082069;54;19971;-78
2023/09/01 03:57:26;;;;;;;;;;;;;;;16.29;88.28;99615.47;1082755;47;19983;-78
2023/09/01 03:58:27;;;;;;;;;;;;;;;16.36;88.20;99609.09;1082025;47;19971;-79
2023/09/01 03:59:30;;;;;;;;;;;;;;;16.36;88.12;99613.66;1082117;47;20030;-78
2023/09/01 04:00:33;;;;;;;;;;;;;;;16.34;88.12;99619.22;1081877;46;19946;-78
2023/09/01 04:01:37;;;;;;;;;;;;;;;16.32;88.62;99610.53;1082746;54;19954;-79
2023/09/01 04:02:37;;;;;;;;;;;;;;;16.33;88.59;99616.75;1083338;46;19946;-78
2023/09/01 04:03:41;;;;;;;;;;;;;;;16.34;89.04;99613.03;1083071;47;20581;-79
2023/09/01 04:04:41;;;;;;;;;;;;;;;16.36;88.64;99617.19;1084087;54;19953;-79
2023/09/01 04:05:45;;;;;;;;;;;;;;;16.37;88.88;99608.06;1083717;47;20967;-79
2023/09/01 04:06:45;;;;;;;;;;;;;;;16.42;88.09;99612.06;1084189;47;19978;-79
2023/09/01 04:07:48;;;;;;;;;;;;;;;16.40;88.62;99616.81;1083903;47;19954;-79
2023/09/01 04:08:49;;;;;;;;;;;;;;;16.39;88.62;99618.66;1084223;47;19970;-79
2023/09/01 04:09:52;;;;;;;;;;;;;;;16.37;89.00;99618.84;1083763;54;20457;-79
2023/09/01 04:10:53;;;;;;;;;;;;;;;16.43;88.94;99619.13;1084212;47;19951;-80
2023/09/01 04:11:57;;;;;;;;;;;;;;;16.48;88.29;99619.38;1084132;47;19999;-80
2023/09/01 04:12:58;;;;;;;;;;;;;;;16.41;88.81;99618.47;1083610;47;19951;-79
2023/09/01 04:14:01;;;;;;;;;;;;;;;16.44;88.71;99623.47;1084685;39;20746;-80
2023/09/01 04:15:02;;;;;;;;;;;;;;;16.43;88.39;99627.22;1083934;47;19950;-79
2023/09/01 04:16:07;;;;;;;;;;;;;;;16.45;88.24;99617.03;1084205;47;19995;-80
2023/09/01 04:17:08;;;;;;;;;;;;;;;16.47;88.14;99618.53;1084060;47;19951;-79
2023/09/01 04:18:11;;;;;;;;;;;;;;;16.55;88.04;99614.84;1084419;47;19998;-80
2023/09/01 04:19:12;;;;;;;;;;;;;;;16.56;87.72;99613.84;1084209;54;19994;-79
2023/09/01 04:20:15;;;;;;;;;;;;;;;16.59;88.36;99621.56;1084434;47;20816;-79
2023/09/01 04:21:16;;;;;;;;;;;;;;;16.62;87.75;99614.91;1084250;54;19950;-79
2023/09/01 04:22:19;;;;;;;;;;;;;;;16.66;87.59;99619.72;1083181;47;19947;-79
2023/09/01 04:23:20;;;;;;;;;;;;;;;16.66;87.54;99622.44;1083671;47;19950;-78
2023/09/01 04:24:23;;;;;;;;;;;;;;;16.68;87.30;99620.38;1083046;47;19947;-79
2023/09/01 04:25:24;;;;;;;;;;;;;;;16.69;86.81;99619.34;1082872;47;20038;-79
2023/09/01 04:26:25;;;;;;;;;;;;;;;16.73;86.89;99621.63;1082704;47;19946;-79
2023/09/01 04:27:28;;;;;;;;;;;;;;;16.72;86.75;99625.41;1082771;47;19976;-79
2023/09/01 04:28:29;;;;;;;;;;;;;;;16.76;86.36;99623.97;1083215;47;19947;-78
2023/09/01 04:29:33;;;;;;;;;;;;;;;16.78;86.43;99632.69;1082982;39;20434;-79
2023/09/01 04:30:34;;;;;;;;;;;;;;;16.78;86.74;99627.31;1083302;54;19951;-78
2023/09/01 04:31:40;;;;;;;;;;;;;;;16.81;86.64;99626.91;1082946;54;20018;-79
2023/09/01 04:32:43;;;;;;;;;;;;;;;16.79;86.52;99627.09;1082500;48;19972;-79
2023/09/01 04:33:46;;;;;;;;;;;;;;;16.82;86.08;99625.88;1082672;47;19950;-78
2023/09/01 04:34:47;;;;;;;;;;;;;;;16.82;86.00;99621.31;1082940;39;20009;-79
2023/09/01 04:35:57;;;;;;;;;;;;;;;16.84;85.85;99623.81;1082412;47;19987;-78
2023/09/01 04:36:58;;;;;;;;;;;;;;;16.84;85.91;99623.81;1082853;54;20898;-79
2023/09/01 04:38:01;;;;;;;;;;;;;;;16.84;85.48;99624.66;1083226;54;19954;-78
2023/09/01 04:39:04;;;;;;;;;;;;;;;16.86;85.38;99620.94;1083319;47;19950;-79
2023/09/01 04:40:09;;;;;;;;;;;;;;;16.78;85.58;99625.41;1082455;47;19956;-78
2023/09/01 04:41:09;;;;;;;;;;;;;;;16.83;85.66;99617.59;1082139;54;20517;-78
2023/09/01 04:42:13;;;;;;;;;;;;;;;16.87;85.01;99622.56;1082796;54;19951;-79
2023/09/01 04:43:13;;;;;;;;;;;;;;;16.88;85.14;99622.41;1083269;47;19954;-79
2023/09/01 04:44:16;;;;;;;;;;;;;;;16.89;84.90;99615.97;1083319;47;19953;-79
2023/09/01 04:45:17;;;;;;;;;;;;;;;16.88;85.06;99625.09;1082996;47;19951;-79
2023/09/01 04:46:18;;;;;;;;;;;;;;;16.91;84.84;99624.69;1083181;47;19995;-79
2023/09/01 04:47:24;;;;;;;;;;;;;;;16.94;84.63;99621.63;1083210;54;19956;-79
2023/09/01 04:48:25;;;;;;;;;;;;;;;16.97;84.56;99623.09;1084041;39;20436;-80
2023/09/01 04:49:28;;;;;;;;;;;;;;;16.98;84.82;99624.78;1083515;54;19951;-80
2023/09/01 04:50:29;;;;;;;;;;;;;;;17.00;84.33;99628.94;1083345;47;19954;-79
2023/09/01 04:51:32;;;;;;;;;;;;;;;17.00;84.12;99628.94;1083216;54;20054;-79
2023/09/01 04:52:32;;;;;;;;;;;;;;;17.04;84.55;99623.16;1084450;54;19950;-79
2023/09/01 04:53:36;;;;;;;;;;;;;;;17.06;84.03;99631.91;1083863;47;19950;-79
2023/09/01 04:54:36;;;;;;;;;;;;;;;17.06;84.54;99615.69;1083275;47;19947;-79
2023/09/01 04:55:39;;;;;;;;;;;;;;;17.07;84.42;99623.59;1082786;47;19954;-79
2023/09/01 04:56:40;;;;;;;;;;;;;;;17.10;84.10;99630.44;1083290;47;19975;-79
2023/09/01 04:57:41;;;;;;;;;;;;;;;17.08;83.87;99629.84;1083375;54;20010;-79
2023/09/01 04:58:44;;;;;;;;;;;;;;;17.06;84.17;99626.50;1082678;47;19950;-79
2023/09/01 04:59:45;;;;;;;;;;;;;;;17.04;84.36;99628.56;1083666;47;19960;-79
2023/09/01 05:00:45;;;;;;;;;;;;;;;17.07;84.55;99628.16;1083873;47;19955;-79
2023/09/01 05:01:49;;;;;;;;;;;;;;;17.10;84.42;99627.75;1082997;54;20065;-78
2023/09/01 05:02:52;;;;;;;;;;;;;;;17.10;84.55;99625.91;1083258;39;20422;-79
2023/09/01 05:03:55;;;;;;;;;;;;;;;17.12;84.55;99621.13;1082929;54;19951;-79
2023/09/01 05:04:56;;;;;;;;;;;;;;;17.13;84.50;99627.38;1083982;47;19950;-79
2023/09/01 05:05:59;;;;;;;;;;;;;;;17.17;84.08;99628.66;1083960;39;20689;-78
2023/09/01 05:07:00;;;;;;;;;;;;;;;17.18;84.49;99634.88;1083545;47;19971;-79
2023/09/01 05:08:01;;;;;;;;;;;;;;;17.19;84.14;99623.03;1083274;47;19946;-78
2023/09/01 05:09:05;;;;;;;;;;;;;;;17.22;84.04;99625.34;1083022;47;19946;-81
2023/09/01 05:10:06;;;;;;;;;;;;;;;17.21;84.14;99620.97;1084226;47;20012;-79
2023/09/01 05:11:09;;;;;;;;;;;;;;;17.23;83.74;99624.31;1085002;47;19946;-78
2023/09/01 05:12:10;;;;;;;;;;;;;;;17.22;83.60;99622.66;1084560;54;20405;-80
2023/09/01 05:13:13;;;;;;;;;;;;;;;17.24;83.69;99618.72;1084578;47;20053;-79
2023/09/01 05:14:14;;;;;;;;;;;;;;;17.26;83.53;99623.91;1084668;47;19969;-80
2023/09/01 05:15:18;;;;;;;;;;;;;;;17.25;83.45;99614.13;1084894;39;20394;-79
2023/09/01 05:16:19;;;;;;;;;;;;;;;17.26;83.52;99627.47;1083364;47;19954;-79
2023/09/01 05:17:22;;;;;;;;;;;;;;;17.28;83.76;99627.25;1083791;47;19946;-79
2023/09/01 05:18:26;;;;;;;;;;;;;;;17.30;83.79;99623.31;1083712;54;19981;-78
2023/09/01 05:19:29;;;;;;;;;;;;;;;17.29;83.43;99627.03;1083749;54;19951;-79
2023/09/01 05:20:32;;;;;;;;;;;;;;;17.26;83.55;99624.75;1083992;54;20438;-78
2023/09/01 05:21:39;;;;;;;;;;;;;;;17.29;83.64;99627.03;1083514;54;19971;-79
2023/09/01 05:22:41;;;;;;;;;;;;;;;17.31;83.58;99629.56;1083005;47;20042;-79
2023/09/01 05:23:46;;;;;;;;;;;;;;;17.35;83.59;99635.41;1082736;47;19971;-78
2023/09/01 05:24:48;;;;;;;;;;;;;;;17.30;83.92;99628.72;1083248;54;20037;-79
2023/09/01 05:25:56;;;;;;;;;;;;;;;17.28;84.02;99628.09;1082958;47;20529;-79
2023/09/01 05:26:58;;;;;;;;;;;;;;;17.29;83.88;99635.16;1083156;54;20069;-78